Главная страница
METAR-TAF:

METAR-TAF

Аэропорты :

Гран-Канария, Испания

широта: 27-56N, долгота: 015-23W, высота над уровнем моря: 23 м

Текущие метеонаблюдения

Эта сводка был подготовлена 17 минут назад, в 02:00 UTC
Ветер 3 Узел от северо-западный
Температура 18°C
Влажность 77%
Давление 1010 hPa
Видимость 10 км и более
небольшая облачность на высоте 1700 фута

METAR: GCLP 040200Z 31003KT 9999 FEW017 18/14 Q1010 NOSIG

Время: 03:17 (02:17 UTC)

Прогноз

Эта сводка был подготовлена 6 часа и 17 минут назад, в 20:00 UTC
Прогноз действительный с 03-го 21 UTC до 04-го 21 UTC
Ветер 5 Узел от западно-северо-западный
Видимость 10 км и более
небольшая облачность на высоте 3000 фута
изменения
С 04-го 11 UTC до 04-го 13 UTC
Ветер 12 Узел от северо-северо-восточный
изменения
С 04-го 19 UTC до 04-го 21 UTC
Ветер 5 Узел от западный

TAF: GCLP 032000Z 0321/0421 30005KT 9999 FEW030 TX23/0414Z TN17/0406Z BECMG 0411/0413 02012KT BECMG 0419/0421 26005KT

Метеонаблюдения и прогнозы для более 4000 аэропортов (сводки METAR и TAF).

Имеющиеся станции представлены на карте желтыми и красными точками.

Чтобы увидеть название станции, наведите на нее мышь.

Затем щелкните, чтобы увидеть метеонаблюдения и метеопрогнозы.

Управление картой: чтобы увеличить масштаб, щелкните зеленые кнопки с черным крестиком; чтобы уменьшить масштаб, щелкните зеленую кнопку с тире; для просмотра соседних карт щелкайте зеленые стрелки.


METAR-TAF: